sensor_id;sensor_type;location;lat;lon;timestamp;pressure;altitude;pressure_sealevel;temperature;humidity
61292;BME280;47165;42.664;23.368;2023-01-28T00:01:37;94391.69;;;1.68;71.75
61292;BME280;47165;42.664;23.368;2023-01-28T00:04:03;94383.19;;;1.66;70.80
61292;BME280;47165;42.664;23.368;2023-01-28T00:06:28;94377.38;;;1.59;70.73
61292;BME280;47165;42.664;23.368;2023-01-28T00:08:54;94384.16;;;1.35;71.69
61292;BME280;47165;42.664;23.368;2023-01-28T00:11:20;94386.03;;;1.30;72.49
61292;BME280;47165;42.664;23.368;2023-01-28T00:13:52;94390.78;;;1.43;71.97
61292;BME280;47165;42.664;23.368;2023-01-28T00:16:18;94395.25;;;1.64;71.63
61292;BME280;47165;42.664;23.368;2023-01-28T00:18:44;94405.38;;;1.70;71.06
61292;BME280;47165;42.664;23.368;2023-01-28T00:21:11;94397.88;;;1.63;70.67
61292;BME280;47165;42.664;23.368;2023-01-28T00:23:39;94404.06;;;1.84;70.69
61292;BME280;47165;42.664;23.368;2023-01-28T00:26:07;94410.91;;;1.85;70.38
61292;BME280;47165;42.664;23.368;2023-01-28T00:28:34;94416.72;;;1.90;69.31
61292;BME280;47165;42.664;23.368;2023-01-28T00:31:14;94406.06;;;1.74;69.47
61292;BME280;47165;42.664;23.368;2023-01-28T00:33:41;94417.84;;;1.28;71.85
61292;BME280;47165;42.664;23.368;2023-01-28T00:36:07;94416.50;;;1.43;71.63
61292;BME280;47165;42.664;23.368;2023-01-28T00:38:33;94415.09;;;1.60;71.32
61292;BME280;47165;42.664;23.368;2023-01-28T00:41:09;94413.56;;;1.55;71.60
61292;BME280;47165;42.664;23.368;2023-01-28T00:43:36;94411.22;;;1.74;70.38
61292;BME280;47165;42.664;23.368;2023-01-28T00:46:05;94431.81;;;1.74;70.35
61292;BME280;47165;42.664;23.368;2023-01-28T00:48:32;94414.78;;;1.70;69.90
61292;BME280;47165;42.664;23.368;2023-01-28T00:50:57;94417.47;;;1.93;69.65
61292;BME280;47165;42.664;23.368;2023-01-28T00:53:23;94424.75;;;2.07;69.71
61292;BME280;47165;42.664;23.368;2023-01-28T00:55:49;94417.81;;;2.09;68.40
61292;BME280;47165;42.664;23.368;2023-01-28T00:58:14;94421.56;;;2.26;68.17
61292;BME280;47165;42.664;23.368;2023-01-28T01:00:40;94427.94;;;1.89;69.66
61292;BME280;47165;42.664;23.368;2023-01-28T01:03:05;94425.25;;;1.92;69.32
61292;BME280;47165;42.664;23.368;2023-01-28T01:05:30;94430.34;;;1.93;68.83
61292;BME280;47165;42.664;23.368;2023-01-28T01:07:58;94422.03;;;1.85;69.63
61292;BME280;47165;42.664;23.368;2023-01-28T01:10:23;94424.00;;;2.04;69.40
61292;BME280;47165;42.664;23.368;2023-01-28T01:12:49;94409.75;;;1.93;68.89
61292;BME280;47165;42.664;23.368;2023-01-28T01:15:16;94426.47;;;1.80;69.48
61292;BME280;47165;42.664;23.368;2023-01-28T01:17:44;94426.53;;;1.52;70.70
61292;BME280;47165;42.664;23.368;2023-01-28T01:20:25;94437.06;;;1.71;70.04
61292;BME280;47165;42.664;23.368;2023-01-28T01:22:51;94427.19;;;1.85;69.90
61292;BME280;47165;42.664;23.368;2023-01-28T01:25:17;94430.19;;;1.98;68.83
61292;BME280;47165;42.664;23.368;2023-01-28T01:27:43;94418.00;;;2.03;69.35
61292;BME280;47165;42.664;23.368;2023-01-28T01:30:10;94427.44;;;2.03;68.48
61292;BME280;47165;42.664;23.368;2023-01-28T01:32:36;94438.09;;;2.18;68.01
61292;BME280;47165;42.664;23.368;2023-01-28T01:35:03;94431.78;;;2.27;67.71
61292;BME280;47165;42.664;23.368;2023-01-28T01:37:33;94431.16;;;2.20;67.57
61292;BME280;47165;42.664;23.368;2023-01-28T01:39:59;94430.31;;;1.95;68.38
61292;BME280;47165;42.664;23.368;2023-01-28T01:42:26;94444.50;;;1.80;69.40
61292;BME280;47165;42.664;23.368;2023-01-28T01:45:10;94435.66;;;1.89;69.00
61292;BME280;47165;42.664;23.368;2023-01-28T01:47:46;94431.81;;;1.74;70.16
61292;BME280;47165;42.664;23.368;2023-01-28T01:53:24;94436.50;;;1.61;70.39
61292;BME280;47165;42.664;23.368;2023-01-28T01:55:53;94436.63;;;1.58;70.77
61292;BME280;47165;42.664;23.368;2023-01-28T01:58:23;94426.56;;;1.22;71.68
61292;BME280;47165;42.664;23.368;2023-01-28T02:00:52;94443.25;;;1.09;72.45
61292;BME280;47165;42.664;23.368;2023-01-28T02:03:22;94450.00;;;1.13;73.56
61292;BME280;47165;42.664;23.368;2023-01-28T02:05:50;94444.56;;;1.22;72.99
61292;BME280;47165;42.664;23.368;2023-01-28T02:08:16;94447.78;;;1.29;71.68
61292;BME280;47165;42.664;23.368;2023-01-28T02:10:52;94455.44;;;1.32;71.78
61292;BME280;47165;42.664;23.368;2023-01-28T02:13:21;94454.66;;;1.28;71.95
61292;BME280;47165;42.664;23.368;2023-01-28T02:15:48;94457.38;;;1.24;71.67
61292;BME280;47165;42.664;23.368;2023-01-28T02:18:14;94450.59;;;0.91;73.38
61292;BME280;47165;42.664;23.368;2023-01-28T02:23:30;94451.06;;;0.76;73.79
61292;BME280;47165;42.664;23.368;2023-01-28T02:27:09;94460.63;;;1.00;74.19
61292;BME280;47165;42.664;23.368;2023-01-28T02:31:48;94453.03;;;1.26;72.42
61292;BME280;47165;42.664;23.368;2023-01-28T02:34:37;94454.38;;;1.09;72.60
61292;BME280;47165;42.664;23.368;2023-01-28T02:37:14;94459.19;;;1.20;72.43
61292;BME280;47165;42.664;23.368;2023-01-28T02:39:45;94459.84;;;1.27;71.59
61292;BME280;47165;42.664;23.368;2023-01-28T02:42:22;94466.69;;;1.28;71.87
61292;BME280;47165;42.664;23.368;2023-01-28T02:44:49;94457.66;;;1.43;71.69
61292;BME280;47165;42.664;23.368;2023-01-28T02:47:15;94460.47;;;1.63;70.89
61292;BME280;47165;42.664;23.368;2023-01-28T02:50:03;94460.88;;;1.49;70.56
61292;BME280;47165;42.664;23.368;2023-01-28T02:55:37;94452.81;;;1.88;69.78
61292;BME280;47165;42.664;23.368;2023-01-28T02:58:14;94461.94;;;1.44;69.82
61292;BME280;47165;42.664;23.368;2023-01-28T03:00:45;94469.16;;;1.59;69.92
61292;BME280;47165;42.664;23.368;2023-01-28T03:03:19;94464.41;;;1.47;69.99
61292;BME280;47165;42.664;23.368;2023-01-28T03:05:51;94459.03;;;1.54;69.78
61292;BME280;47165;42.664;23.368;2023-01-28T03:08:43;94470.69;;;1.66;69.69
61292;BME280;47165;42.664;23.368;2023-01-28T03:11:30;94462.34;;;1.58;69.52
61292;BME280;47165;42.664;23.368;2023-01-28T03:14:16;94459.28;;;1.73;69.19
61292;BME280;47165;42.664;23.368;2023-01-28T03:17:02;94469.25;;;1.28;69.59
61292;BME280;47165;42.664;23.368;2023-01-28T03:19:48;94455.56;;;1.27;70.21
61292;BME280;47165;42.664;23.368;2023-01-28T03:22:35;94465.97;;;0.93;71.54
61292;BME280;47165;42.664;23.368;2023-01-28T03:25:21;94461.41;;;0.40;74.03
61292;BME280;47165;42.664;23.368;2023-01-28T03:28:10;94473.28;;;0.77;72.68
61292;BME280;47165;42.664;23.368;2023-01-28T03:31:03;94463.50;;;0.58;73.56
61292;BME280;47165;42.664;23.368;2023-01-28T03:33:50;94468.91;;;0.80;73.10
61292;BME280;47165;42.664;23.368;2023-01-28T03:36:35;94480.81;;;0.83;73.34
61292;BME280;47165;42.664;23.368;2023-01-28T03:39:25;94476.59;;;1.10;71.85
61292;BME280;47165;42.664;23.368;2023-01-28T03:41:59;94490.63;;;0.69;73.28
61292;BME280;47165;42.664;23.368;2023-01-28T03:44:25;94489.00;;;0.96;73.26
61292;BME280;47165;42.664;23.368;2023-01-28T03:47:09;94475.34;;;1.25;72.23
61292;BME280;47165;42.664;23.368;2023-01-28T03:49:38;94472.00;;;1.22;71.02
61292;BME280;47165;42.664;23.368;2023-01-28T03:52:04;94483.13;;;0.92;71.55
61292;BME280;47165;42.664;23.368;2023-01-28T03:54:29;94477.94;;;1.24;71.08
61292;BME280;47165;42.664;23.368;2023-01-28T03:56:55;94475.78;;;1.39;70.46
61292;BME280;47165;42.664;23.368;2023-01-28T03:59:20;94478.09;;;0.88;71.64
61292;BME280;47165;42.664;23.368;2023-01-28T04:01:45;94477.31;;;0.54;72.99
61292;BME280;47165;42.664;23.368;2023-01-28T04:04:11;94478.22;;;0.53;72.97
61292;BME280;47165;42.664;23.368;2023-01-28T04:06:49;94484.34;;;0.79;72.45
61292;BME280;47165;42.664;23.368;2023-01-28T04:09:14;94501.97;;;0.62;72.95
61292;BME280;47165;42.664;23.368;2023-01-28T04:11:40;94506.81;;;0.39;74.36
61292;BME280;47165;42.664;23.368;2023-01-28T04:14:05;94498.59;;;0.59;73.90
61292;BME280;47165;42.664;23.368;2023-01-28T04:16:31;94500.28;;;0.59;73.86
61292;BME280;47165;42.664;23.368;2023-01-28T04:18:56;94497.06;;;0.84;73.54
61292;BME280;47165;42.664;23.368;2023-01-28T04:21:23;94507.06;;;0.94;72.33
61292;BME280;47165;42.664;23.368;2023-01-28T04:23:49;94505.97;;;0.72;72.87
61292;BME280;47165;42.664;23.368;2023-01-28T04:26:14;94496.63;;;1.00;72.22
61292;BME280;47165;42.664;23.368;2023-01-28T04:28:40;94501.41;;;1.13;71.10
61292;BME280;47165;42.664;23.368;2023-01-28T04:31:05;94500.97;;;1.28;70.95
61292;BME280;47165;42.664;23.368;2023-01-28T04:33:30;94503.75;;;1.20;70.45
61292;BME280;47165;42.664;23.368;2023-01-28T04:35:56;94511.25;;;1.28;70.22
61292;BME280;47165;42.664;23.368;2023-01-28T04:38:21;94525.06;;;1.24;70.14
61292;BME280;47165;42.664;23.368;2023-01-28T04:40:51;94514.88;;;1.21;70.42
61292;BME280;47165;42.664;23.368;2023-01-28T04:43:16;94516.59;;;1.20;70.36
61292;BME280;47165;42.664;23.368;2023-01-28T04:45:42;94512.22;;;0.94;71.63
61292;BME280;47165;42.664;23.368;2023-01-28T04:48:08;94527.41;;;1.02;71.96
61292;BME280;47165;42.664;23.368;2023-01-28T04:50:33;94525.78;;;0.98;71.54
61292;BME280;47165;42.664;23.368;2023-01-28T04:52:58;94534.28;;;1.02;71.55
61292;BME280;47165;42.664;23.368;2023-01-28T04:55:24;94534.28;;;0.70;72.44
61292;BME280;47165;42.664;23.368;2023-01-28T04:57:49;94533.59;;;0.95;72.66
61292;BME280;47165;42.664;23.368;2023-01-28T05:00:15;94535.56;;;0.54;73.48
61292;BME280;47165;42.664;23.368;2023-01-28T05:02:41;94537.59;;;0.74;74.23
61292;BME280;47165;42.664;23.368;2023-01-28T05:05:06;94540.00;;;0.80;73.32
61292;BME280;47165;42.664;23.368;2023-01-28T05:07:34;94549.16;;;0.57;74.36
61292;BME280;47165;42.664;23.368;2023-01-28T05:09:59;94547.88;;;0.74;74.21
61292;BME280;47165;42.664;23.368;2023-01-28T05:12:25;94546.31;;;0.68;74.29
61292;BME280;47165;42.664;23.368;2023-01-28T05:14:50;94550.84;;;0.58;74.21
61292;BME280;47165;42.664;23.368;2023-01-28T05:17:15;94550.19;;;0.83;74.18
61292;BME280;47165;42.664;23.368;2023-01-28T05:19:41;94562.53;;;1.03;73.86
61292;BME280;47165;42.664;23.368;2023-01-28T05:22:07;94560.19;;;0.61;74.47
61292;BME280;47165;42.664;23.368;2023-01-28T05:24:33;94568.16;;;0.85;73.89
61292;BME280;47165;42.664;23.368;2023-01-28T05:26:58;94551.56;;;0.96;72.92
61292;BME280;47165;42.664;23.368;2023-01-28T05:29:23;94555.59;;;1.05;72.50
61292;BME280;47165;42.664;23.368;2023-01-28T05:31:49;94559.91;;;1.05;71.45
61292;BME280;47165;42.664;23.368;2023-01-28T05:34:14;94561.91;;;1.25;71.66
61292;BME280;47165;42.664;23.368;2023-01-28T05:36:40;94570.44;;;1.27;70.93
61292;BME280;47165;42.664;23.368;2023-01-28T05:39:06;94568.41;;;1.38;70.61
61292;BME280;47165;42.664;23.368;2023-01-28T05:41:32;94559.56;;;1.17;70.89
61292;BME280;47165;42.664;23.368;2023-01-28T05:43:58;94563.31;;;1.36;70.35
61292;BME280;47165;42.664;23.368;2023-01-28T05:46:23;94567.16;;;1.51;69.74
61292;BME280;47165;42.664;23.368;2023-01-28T05:48:52;94582.88;;;1.42;69.07
61292;BME280;47165;42.664;23.368;2023-01-28T05:51:17;94559.84;;;1.37;69.35
61292;BME280;47165;42.664;23.368;2023-01-28T05:53:43;94567.66;;;1.64;68.94
61292;BME280;47165;42.664;23.368;2023-01-28T05:56:08;94563.53;;;1.58;68.34
61292;BME280;47165;42.664;23.368;2023-01-28T05:58:34;94583.75;;;1.41;68.46
61292;BME280;47165;42.664;23.368;2023-01-28T06:00:59;94582.72;;;1.17;69.83
61292;BME280;47165;42.664;23.368;2023-01-28T06:03:24;94588.53;;;0.92;70.40
61292;BME280;47165;42.664;23.368;2023-01-28T06:05:50;94595.16;;;0.67;71.27
61292;BME280;47165;42.664;23.368;2023-01-28T06:08:15;94599.34;;;1.04;70.93
61292;BME280;47165;42.664;23.368;2023-01-28T06:10:41;94593.16;;;1.11;70.69
61292;BME280;47165;42.664;23.368;2023-01-28T06:13:06;94610.66;;;1.29;70.04
61292;BME280;47165;42.664;23.368;2023-01-28T06:15:32;94614.84;;;1.33;69.63
61292;BME280;47165;42.664;23.368;2023-01-28T06:17:57;94601.91;;;0.71;71.15
61292;BME280;47165;42.664;23.368;2023-01-28T06:20:23;94624.72;;;0.83;71.40
61292;BME280;47165;42.664;23.368;2023-01-28T06:22:52;94626.25;;;0.90;71.67
61292;BME280;47165;42.664;23.368;2023-01-28T06:25:17;94627.72;;;1.00;71.08
61292;BME280;47165;42.664;23.368;2023-01-28T06:27:43;94631.03;;;0.35;72.12
61292;BME280;47165;42.664;23.368;2023-01-28T06:30:09;94636.84;;;0.42;72.96
61292;BME280;47165;42.664;23.368;2023-01-28T06:32:35;94636.34;;;0.64;73.28
61292;BME280;47165;42.664;23.368;2023-01-28T06:35:01;94629.59;;;0.59;72.46
61292;BME280;47165;42.664;23.368;2023-01-28T06:37:26;94646.69;;;0.60;72.22
61292;BME280;47165;42.664;23.368;2023-01-28T06:39:52;94646.09;;;0.85;71.71
61292;BME280;47165;42.664;23.368;2023-01-28T06:42:17;94638.91;;;0.64;71.74
61292;BME280;47165;42.664;23.368;2023-01-28T06:44:43;94655.66;;;0.80;71.53
61292;BME280;47165;42.664;23.368;2023-01-28T06:47:08;94645.88;;;0.58;71.75
61292;BME280;47165;42.664;23.368;2023-01-28T06:49:36;94663.81;;;0.62;72.33
61292;BME280;47165;42.664;23.368;2023-01-28T06:52:01;94657.25;;;0.48;72.43
61292;BME280;47165;42.664;23.368;2023-01-28T06:54:26;94667.09;;;0.31;73.78
61292;BME280;47165;42.664;23.368;2023-01-28T06:56:52;94664.56;;;0.28;73.91
61292;BME280;47165;42.664;23.368;2023-01-28T06:59:17;94666.72;;;0.09;74.25
61292;BME280;47165;42.664;23.368;2023-01-28T07:01:43;94660.28;;;0.28;73.64
61292;BME280;47165;42.664;23.368;2023-01-28T07:04:08;94669.09;;;0.55;73.09
61292;BME280;47165;42.664;23.368;2023-01-28T07:06:33;94666.19;;;0.32;73.49
61292;BME280;47165;42.664;23.368;2023-01-28T07:08:59;94670.25;;;0.40;73.65
61292;BME280;47165;42.664;23.368;2023-01-28T07:11:24;94684.13;;;0.71;72.55
61292;BME280;47165;42.664;23.368;2023-01-28T07:13:50;94667.88;;;0.70;72.04
61292;BME280;47165;42.664;23.368;2023-01-28T07:16:15;94684.13;;;0.71;72.57
61292;BME280;47165;42.664;23.368;2023-01-28T07:18:41;94690.75;;;0.79;71.73
61292;BME280;47165;42.664;23.368;2023-01-28T07:21:06;94699.25;;;0.83;71.82
61292;BME280;47165;42.664;23.368;2023-01-28T07:23:32;94677.38;;;0.67;71.22
61292;BME280;47165;42.664;23.368;2023-01-28T07:26:01;94703.53;;;0.84;72.06
61292;BME280;47165;42.664;23.368;2023-01-28T07:28:27;94704.06;;;0.97;71.33
61292;BME280;47165;42.664;23.368;2023-01-28T07:30:52;94705.19;;;1.21;70.67
61292;BME280;47165;42.664;23.368;2023-01-28T07:33:18;94702.66;;;1.18;70.71
61292;BME280;47165;42.664;23.368;2023-01-28T07:35:44;94715.84;;;1.04;72.48
61292;BME280;47165;42.664;23.368;2023-01-28T07:38:09;94698.34;;;1.20;71.56
61292;BME280;47165;42.664;23.368;2023-01-28T07:40:35;94726.00;;;1.45;71.50
61292;BME280;47165;42.664;23.368;2023-01-28T07:43:00;94713.44;;;1.32;70.47
61292;BME280;47165;42.664;23.368;2023-01-28T07:45:26;94715.38;;;1.57;69.26
61292;BME280;47165;42.664;23.368;2023-01-28T07:47:59;94716.28;;;1.56;68.79
61292;BME280;47165;42.664;23.368;2023-01-28T07:50:25;94710.47;;;1.80;68.16
61292;BME280;47165;42.664;23.368;2023-01-28T07:52:53;94715.78;;;1.74;68.37
61292;BME280;47165;42.664;23.368;2023-01-28T07:55:18;94721.75;;;1.75;68.15
61292;BME280;47165;42.664;23.368;2023-01-28T07:57:55;94722.63;;;1.74;67.92
61292;BME280;47165;42.664;23.368;2023-01-28T08:00:22;94732.13;;;1.72;67.74
61292;BME280;47165;42.664;23.368;2023-01-28T08:02:48;94718.09;;;1.84;67.16
61292;BME280;47165;42.664;23.368;2023-01-28T08:05:18;94718.63;;;1.64;67.65
61292;BME280;47165;42.664;23.368;2023-01-28T08:07:44;94724.84;;;1.88;67.27
61292;BME280;47165;42.664;23.368;2023-01-28T08:10:11;94733.06;;;1.69;67.47
61292;BME280;47165;42.664;23.368;2023-01-28T08:12:37;94736.53;;;1.68;66.99
61292;BME280;47165;42.664;23.368;2023-01-28T08:15:03;94735.09;;;1.24;69.14
61292;BME280;47165;42.664;23.368;2023-01-28T08:17:29;94733.56;;;1.16;68.82
61292;BME280;47165;42.664;23.368;2023-01-28T08:19:55;94740.25;;;1.24;69.02
61292;BME280;47165;42.664;23.368;2023-01-28T08:22:24;94736.16;;;1.49;68.35
61292;BME280;47165;42.664;23.368;2023-01-28T08:24:49;94733.72;;;1.45;68.30
61292;BME280;47165;42.664;23.368;2023-01-28T08:27:15;94745.69;;;1.11;69.59
61292;BME280;47165;42.664;23.368;2023-01-28T08:29:40;94741.00;;;0.93;70.40
61292;BME280;47165;42.664;23.368;2023-01-28T08:32:06;94743.84;;;0.80;71.18
61292;BME280;47165;42.664;23.368;2023-01-28T08:34:31;94747.38;;;0.76;70.81
61292;BME280;47165;42.664;23.368;2023-01-28T08:36:57;94743.75;;;0.85;71.29
61292;BME280;47165;42.664;23.368;2023-01-28T08:39:22;94738.78;;;1.13;72.51
61292;BME280;47165;42.664;23.368;2023-01-28T08:41:47;94742.34;;;1.08;70.82
61292;BME280;47165;42.664;23.368;2023-01-28T08:44:13;94747.22;;;0.84;70.62
61292;BME280;47165;42.664;23.368;2023-01-28T08:46:38;94749.84;;;1.17;71.19
61292;BME280;47165;42.664;23.368;2023-01-28T08:49:03;94737.06;;;1.48;70.90
61292;BME280;47165;42.664;23.368;2023-01-28T08:51:29;94736.44;;;1.71;69.16
61292;BME280;47165;42.664;23.368;2023-01-28T08:53:54;94739.06;;;2.01;67.67
61292;BME280;47165;42.664;23.368;2023-01-28T08:56:20;94746.38;;;2.15;66.37
61292;BME280;47165;42.664;23.368;2023-01-28T08:58:45;94744.56;;;2.18;66.12
61292;BME280;47165;42.664;23.368;2023-01-28T09:01:10;94739.41;;;2.18;65.66
61292;BME280;47165;42.664;23.368;2023-01-28T09:03:36;94741.78;;;2.26;65.49
61292;BME280;47165;42.664;23.368;2023-01-28T09:06:02;94743.97;;;1.79;65.83
61292;BME280;47165;42.664;23.368;2023-01-28T09:08:28;94749.88;;;1.50;67.64
61292;BME280;47165;42.664;23.368;2023-01-28T09:10:55;94747.78;;;1.64;67.64
61292;BME280;47165;42.664;23.368;2023-01-28T09:13:21;94750.09;;;1.73;67.77
61292;BME280;47165;42.664;23.368;2023-01-28T09:15:47;94753.81;;;1.63;67.54
61292;BME280;47165;42.664;23.368;2023-01-28T09:18:12;94749.88;;;1.83;67.16
61292;BME280;47165;42.664;23.368;2023-01-28T09:20:38;94754.75;;;1.92;67.37
61292;BME280;47165;42.664;23.368;2023-01-28T09:23:04;94743.59;;;1.93;66.63
61292;BME280;47165;42.664;23.368;2023-01-28T09:25:29;94748.66;;;1.63;67.11
61292;BME280;47165;42.664;23.368;2023-01-28T09:27:56;94778.25;;;1.47;67.84
61292;BME280;47165;42.664;23.368;2023-01-28T09:30:22;94749.88;;;1.50;68.32
61292;BME280;47165;42.664;23.368;2023-01-28T09:32:52;94745.84;;;1.72;68.04
61292;BME280;47165;42.664;23.368;2023-01-28T09:35:17;94758.00;;;1.67;69.38
61292;BME280;47165;42.664;23.368;2023-01-28T09:37:44;94751.72;;;1.77;68.21
61292;BME280;47165;42.664;23.368;2023-01-28T09:40:33;94749.78;;;1.86;67.78
61292;BME280;47165;42.664;23.368;2023-01-28T09:45:46;94744.09;;;1.74;68.72
61292;BME280;47165;42.664;23.368;2023-01-28T09:48:15;94753.09;;;1.91;68.28
61292;BME280;47165;42.664;23.368;2023-01-28T09:50:45;94744.13;;;2.04;67.65
61292;BME280;47165;42.664;23.368;2023-01-28T09:55:45;94757.00;;;2.04;67.79
61292;BME280;47165;42.664;23.368;2023-01-28T09:58:14;94739.06;;;2.01;67.73
61292;BME280;47165;42.664;23.368;2023-01-28T10:09:43;94742.69;;;1.94;68.52
61292;BME280;47165;42.664;23.368;2023-01-28T10:17:46;94741.28;;;1.82;67.73
61292;BME280;47165;42.664;23.368;2023-01-28T10:22:45;94750.59;;;1.55;70.23
61292;BME280;47165;42.664;23.368;2023-01-28T10:25:21;94742.50;;;1.69;68.79
61292;BME280;47165;42.664;23.368;2023-01-28T10:27:48;94743.03;;;1.81;68.48
61292;BME280;47165;42.664;23.368;2023-01-28T10:32:50;94747.84;;;1.94;68.73
61292;BME280;47165;42.664;23.368;2023-01-28T10:35:16;94713.88;;;1.81;68.55
61292;BME280;47165;42.664;23.368;2023-01-28T10:37:42;94753.88;;;1.93;68.40
61292;BME280;47165;42.664;23.368;2023-01-28T10:40:13;94737.47;;;1.97;68.04
61292;BME280;47165;42.664;23.368;2023-01-28T10:42:39;94743.34;;;2.00;67.41
61292;BME280;47165;42.664;23.368;2023-01-28T10:45:19;94741.19;;;1.87;68.45
61292;BME280;47165;42.664;23.368;2023-01-28T10:48:20;94742.34;;;2.06;68.67
61292;BME280;47165;42.664;23.368;2023-01-28T10:51:00;94736.34;;;2.06;67.74
61292;BME280;47165;42.664;23.368;2023-01-28T10:53:39;94732.97;;;2.04;67.21
61292;BME280;47165;42.664;23.368;2023-01-28T10:56:26;94734.59;;;1.76;68.85
61292;BME280;47165;42.664;23.368;2023-01-28T11:01:23;94739.97;;;1.67;69.30
61292;BME280;47165;42.664;23.368;2023-01-28T11:03:57;94746.97;;;1.95;69.41
61292;BME280;47165;42.664;23.368;2023-01-28T11:06:27;94733.00;;;2.02;68.15
61292;BME280;47165;42.664;23.368;2023-01-28T11:08:54;94740.66;;;1.74;68.81
61292;BME280;47165;42.664;23.368;2023-01-28T11:11:26;94728.84;;;1.98;68.35
61292;BME280;47165;42.664;23.368;2023-01-28T11:13:53;94728.31;;;2.16;68.26
61292;BME280;47165;42.664;23.368;2023-01-28T11:16:20;94729.00;;;2.51;67.38
61292;BME280;47165;42.664;23.368;2023-01-28T11:19:06;94726.19;;;2.31;66.31
61292;BME280;47165;42.664;23.368;2023-01-28T11:21:33;94727.34;;;1.91;67.27
61292;BME280;47165;42.664;23.368;2023-01-28T11:24:04;94737.81;;;1.85;68.28
61292;BME280;47165;42.664;23.368;2023-01-28T11:26:37;94734.47;;;2.11;68.03
61292;BME280;47165;42.664;23.368;2023-01-28T11:29:03;94725.31;;;2.32;66.54
61292;BME280;47165;42.664;23.368;2023-01-28T11:31:38;94733.13;;;1.99;66.23
61292;BME280;47165;42.664;23.368;2023-01-28T11:34:05;94729.63;;;2.00;66.50
61292;BME280;47165;42.664;23.368;2023-01-28T11:36:32;94722.19;;;1.91;66.63
61292;BME280;47165;42.664;23.368;2023-01-28T11:39:02;94724.75;;;1.91;67.25
61292;BME280;47165;42.664;23.368;2023-01-28T11:41:34;94719.81;;;2.13;66.76
61292;BME280;47165;42.664;23.368;2023-01-28T11:44:15;94720.38;;;1.61;67.66
61292;BME280;47165;42.664;23.368;2023-01-28T11:52:26;94719.91;;;2.39;66.45
61292;BME280;47165;42.664;23.368;2023-01-28T12:00:40;94722.28;;;2.17;66.71
61292;BME280;47165;42.664;23.368;2023-01-28T12:08:14;94720.84;;;2.37;67.25
61292;BME280;47165;42.664;23.368;2023-01-28T12:13:34;94718.50;;;2.86;63.93
61292;BME280;47165;42.664;23.368;2023-01-28T12:19:13;94721.91;;;2.59;63.55
61292;BME280;47165;42.664;23.368;2023-01-28T12:21:54;94719.69;;;2.75;63.67
61292;BME280;47165;42.664;23.368;2023-01-28T12:40:46;94730.66;;;3.09;62.51
61292;BME280;47165;42.664;23.368;2023-01-28T12:43:26;94732.25;;;3.39;62.52
61292;BME280;47165;42.664;23.368;2023-01-28T12:48:42;94739.06;;;2.60;65.37
61292;BME280;47165;42.664;23.368;2023-01-28T12:51:17;94744.22;;;2.60;64.30
61292;BME280;47165;42.664;23.368;2023-01-28T12:53:59;94745.25;;;1.94;66.56
61292;BME280;47165;42.664;23.368;2023-01-28T12:56:32;94757.16;;;1.98;66.57
61292;BME280;47165;42.664;23.368;2023-01-28T12:59:19;94745.13;;;2.30;66.46
61292;BME280;47165;42.664;23.368;2023-01-28T13:01:54;94750.06;;;2.66;66.20
61292;BME280;47165;42.664;23.368;2023-01-28T13:04:42;94737.16;;;2.66;64.08
61292;BME280;47165;42.664;23.368;2023-01-28T13:07:47;94745.13;;;2.58;64.31
61292;BME280;47165;42.664;23.368;2023-01-28T13:10:26;94760.94;;;2.17;64.67
61292;BME280;47165;42.664;23.368;2023-01-28T13:12:54;94758.63;;;2.38;65.15
61292;BME280;47165;42.664;23.368;2023-01-28T13:15:21;94736.06;;;2.46;64.03
61292;BME280;47165;42.664;23.368;2023-01-28T13:18:03;94749.91;;;2.70;63.90
61292;BME280;47165;42.664;23.368;2023-01-28T13:20:36;94744.97;;;2.91;63.61
61292;BME280;47165;42.664;23.368;2023-01-28T13:23:21;94763.59;;;3.00;62.87
61292;BME280;47165;42.664;23.368;2023-01-28T13:25:48;94761.56;;;3.10;62.41
61292;BME280;47165;42.664;23.368;2023-01-28T13:28:31;94765.69;;;3.16;62.49
61292;BME280;47165;42.664;23.368;2023-01-28T13:31:08;94753.91;;;3.07;62.10
61292;BME280;47165;42.664;23.368;2023-01-28T13:33:36;94761.81;;;3.02;62.66
61292;BME280;47165;42.664;23.368;2023-01-28T13:36:21;94774.41;;;2.85;62.39
61292;BME280;47165;42.664;23.368;2023-01-28T13:41:51;94781.09;;;2.33;64.02
61292;BME280;47165;42.664;23.368;2023-01-28T13:44:28;94788.75;;;2.64;64.16
61292;BME280;47165;42.664;23.368;2023-01-28T13:49:38;94788.22;;;2.54;63.33
61292;BME280;47165;42.664;23.368;2023-01-28T13:52:26;94803.50;;;1.65;65.83
61292;BME280;47165;42.664;23.368;2023-01-28T13:55:03;94804.72;;;1.85;65.75
61292;BME280;47165;42.664;23.368;2023-01-28T14:14:16;94832.25;;;2.15;65.39
61292;BME280;47165;42.664;23.368;2023-01-28T14:17:14;94829.88;;;1.73;66.96
61292;BME280;47165;42.664;23.368;2023-01-28T14:19:42;94828.22;;;1.36;67.88
61292;BME280;47165;42.664;23.368;2023-01-28T14:22:15;94828.63;;;1.55;67.71
61292;BME280;47165;42.664;23.368;2023-01-28T14:24:43;94834.63;;;1.56;67.79
61292;BME280;47165;42.664;23.368;2023-01-28T14:27:31;94839.03;;;1.51;67.78
61292;BME280;47165;42.664;23.368;2023-01-28T14:32:55;94831.25;;;1.54;67.53
61292;BME280;47165;42.664;23.368;2023-01-28T14:35:29;94834.94;;;1.06;68.65
61292;BME280;47165;42.664;23.368;2023-01-28T14:37:56;94841.88;;;1.40;68.41
61292;BME280;47165;42.664;23.368;2023-01-28T14:40:23;94845.28;;;1.40;68.04
61292;BME280;47165;42.664;23.368;2023-01-28T14:42:52;94838.72;;;1.63;67.70
61292;BME280;47165;42.664;23.368;2023-01-28T14:59:21;94851.78;;;2.22;65.64
61292;BME280;47165;42.664;23.368;2023-01-28T15:01:48;94857.56;;;2.31;64.92
61292;BME280;47165;42.664;23.368;2023-01-28T15:06:52;94859.03;;;2.39;64.73
61292;BME280;47165;42.664;23.368;2023-01-28T15:09:18;94856.56;;;1.71;66.42
61292;BME280;47165;42.664;23.368;2023-01-28T15:11:46;94859.50;;;1.90;66.22
61292;BME280;47165;42.664;23.368;2023-01-28T15:14:25;94871.88;;;2.10;65.30
61292;BME280;47165;42.664;23.368;2023-01-28T15:16:52;94864.13;;;1.77;65.79